Dawson Creek Airport
CYDQ : now visible

Airfield :











YOU CAN JOIN US ON...

 
LOGIN :

Register | Disclaimer

   EN    FR    IT 

 









Legend :    VFR   Marginal VFR   IFR   Intensive IFR   Very Intensive IFR
Visi :
Ceiling :
>= 8 km
>= 3000ft
5 to 8 km
1000 to 3000 ft
1500m to 5 km
500 to 1000 ft
800 to 1500m
200 to 500 ft
< 800m
< 200 ft
Symbols :   Thunderstorms  Fog  Heavy snow  Heavy precipitations  Wind > 20 kt






- Airport Elevation : 2148 ft
- IATA code : YDQ


CYDQ - Dawson Creek

CURRENT METAR :
  • 280000Z AUTO 32007KT 9SM SCT250 17/M01 A3016 RMK SLP228 DENSITY ALT 2600FT

EXPIRED METARs :
  • 272300Z AUTO 32009KT 290V360 9SM FEW100 17/M00 A3015 RMK SLP225 DENSITY ALT 2600FT
  • 272200Z AUTO 32008G18KT 9SM FEW080 SCT100 SCT250 17/M02 A3015 RMK SLP223 DENSITY ALT 2500FT

TAF TAF CYDQ
Valid from the 27 at 19:00 until the 28 at 05:00 UTC


271838Z 2719/2805 33012KT P6SM FEW060
TEMPO 2721/2803 BKN060
BECMG 2800/2802 04006KT RMK FCST BASED ON AUTO OBS. NXT FCST BY 280100Z
CZEG FIR / North America



MET'MAP, your aeronautical weather chart ! - Copyright ORBIFLY December 2007 - Disclaimer

ORBIFLY MET'MAP TEAM :

Programming & Development : Alexandra Zaïnal
Concept & original design : Baudouin d'Aumeries
Assistance for programming : Marc-Olivier Méhu
Technical & hardware support : Manuel Goepfert

Contact : metmap@orbifly.com




SOURCES & CREDITS :

   NOAA       Earth
Advisory